sensor_id;sensor_type;location;lat;lon;timestamp;P1;durP1;ratioP1;P2;durP2;ratioP2
25249;SDS011;13201;51.148;13.738;2023-11-21T00:00:20;1.95;;;1.20;;
25249;SDS011;13201;51.148;13.738;2023-11-21T00:02:45;2.53;;;1.27;;
25249;SDS011;13201;51.148;13.738;2023-11-21T00:05:12;2.00;;;1.23;;
25249;SDS011;13201;51.148;13.738;2023-11-21T00:07:39;4.57;;;1.33;;
25249;SDS011;13201;51.148;13.738;2023-11-21T00:10:05;2.07;;;1.10;;
25249;SDS011;13201;51.148;13.738;2023-11-21T00:12:33;2.85;;;1.05;;
25249;SDS011;13201;51.148;13.738;2023-11-21T00:15:02;1.73;;;1.10;;
25249;SDS011;13201;51.148;13.738;2023-11-21T00:17:30;3.88;;;1.02;;
25249;SDS011;13201;51.148;13.738;2023-11-21T00:19:56;2.53;;;1.30;;
25249;SDS011;13201;51.148;13.738;2023-11-21T00:22:21;2.63;;;1.02;;
25249;SDS011;13201;51.148;13.738;2023-11-21T00:24:47;2.83;;;0.90;;
25249;SDS011;13201;51.148;13.738;2023-11-21T00:27:13;2.42;;;1.02;;
25249;SDS011;13201;51.148;13.738;2023-11-21T00:29:39;2.93;;;1.00;;
25249;SDS011;13201;51.148;13.738;2023-11-21T00:32:05;3.38;;;1.30;;
25249;SDS011;13201;51.148;13.738;2023-11-21T00:34:31;1.95;;;1.17;;
25249;SDS011;13201;51.148;13.738;2023-11-21T00:36:58;4.17;;;1.13;;
25249;SDS011;13201;51.148;13.738;2023-11-21T00:39:24;3.70;;;1.15;;
25249;SDS011;13201;51.148;13.738;2023-11-21T00:41:51;4.30;;;1.40;;
25249;SDS011;13201;51.148;13.738;2023-11-21T00:44:17;2.72;;;1.10;;
25249;SDS011;13201;51.148;13.738;2023-11-21T00:46:42;2.35;;;1.10;;
25249;SDS011;13201;51.148;13.738;2023-11-21T00:49:08;2.40;;;1.10;;
25249;SDS011;13201;51.148;13.738;2023-11-21T00:51:34;2.75;;;1.08;;
25249;SDS011;13201;51.148;13.738;2023-11-21T00:53:59;2.00;;;1.20;;
25249;SDS011;13201;51.148;13.738;2023-11-21T00:56:26;3.10;;;1.03;;
25249;SDS011;13201;51.148;13.738;2023-11-21T00:58:51;2.67;;;1.10;;
25249;SDS011;13201;51.148;13.738;2023-11-21T01:01:18;1.98;;;1.10;;
25249;SDS011;13201;51.148;13.738;2023-11-21T01:28:13;3.65;;;1.35;;
25249;SDS011;13201;51.148;13.738;2023-11-21T01:30:39;1.85;;;1.23;;
25249;SDS011;13201;51.148;13.738;2023-11-21T01:33:05;5.35;;;1.65;;
25249;SDS011;13201;51.148;13.738;2023-11-21T01:35:30;4.00;;;1.52;;
25249;SDS011;13201;51.148;13.738;2023-11-21T01:37:56;4.20;;;1.13;;
25249;SDS011;13201;51.148;13.738;2023-11-21T01:40:22;4.40;;;1.40;;
25249;SDS011;13201;51.148;13.738;2023-11-21T01:42:47;4.28;;;1.40;;
25249;SDS011;13201;51.148;13.738;2023-11-21T01:45:13;4.35;;;1.17;;
25249;SDS011;13201;51.148;13.738;2023-11-21T01:47:39;2.25;;;1.30;;
25249;SDS011;13201;51.148;13.738;2023-11-21T01:50:08;5.72;;;1.60;;
25249;SDS011;13201;51.148;13.738;2023-11-21T01:52:37;2.10;;;1.27;;
25249;SDS011;13201;51.148;13.738;2023-11-21T01:55:05;2.25;;;1.45;;
25249;SDS011;13201;51.148;13.738;2023-11-21T01:57:33;4.70;;;1.20;;
25249;SDS011;13201;51.148;13.738;2023-11-21T02:00:00;4.05;;;1.40;;
25249;SDS011;13201;51.148;13.738;2023-11-21T02:02:49;2.42;;;1.23;;
25249;SDS011;13201;51.148;13.738;2023-11-21T02:05:15;3.45;;;1.30;;
25249;SDS011;13201;51.148;13.738;2023-11-21T02:07:45;3.38;;;1.40;;
25249;SDS011;13201;51.148;13.738;2023-11-21T02:10:14;4.28;;;1.20;;
25249;SDS011;13201;51.148;13.738;2023-11-21T02:12:41;2.75;;;1.50;;
25249;SDS011;13201;51.148;13.738;2023-11-21T02:15:08;4.18;;;1.35;;
25249;SDS011;13201;51.148;13.738;2023-11-21T02:17:43;7.07;;;1.65;;
25249;SDS011;13201;51.148;13.738;2023-11-21T02:20:12;3.78;;;1.30;;
25249;SDS011;13201;51.148;13.738;2023-11-21T02:22:43;4.70;;;1.60;;
25249;SDS011;13201;51.148;13.738;2023-11-21T02:25:28;2.55;;;1.33;;
25249;SDS011;13201;51.148;13.738;2023-11-21T02:27:55;4.65;;;1.38;;
25249;SDS011;13201;51.148;13.738;2023-11-21T02:30:21;3.67;;;1.17;;
25249;SDS011;13201;51.148;13.738;2023-11-21T02:32:50;5.65;;;1.42;;
25249;SDS011;13201;51.148;13.738;2023-11-21T02:35:19;4.72;;;1.90;;
25249;SDS011;13201;51.148;13.738;2023-11-21T02:37:48;6.28;;;2.10;;
25249;SDS011;13201;51.148;13.738;2023-11-21T02:40:14;3.28;;;1.50;;
25249;SDS011;13201;51.148;13.738;2023-11-21T02:42:43;3.45;;;1.20;;
25249;SDS011;13201;51.148;13.738;2023-11-21T02:45:09;4.50;;;1.90;;
25249;SDS011;13201;51.148;13.738;2023-11-21T02:47:37;5.97;;;1.45;;
25249;SDS011;13201;51.148;13.738;2023-11-21T02:50:03;2.33;;;1.30;;
25249;SDS011;13201;51.148;13.738;2023-11-21T02:52:31;4.72;;;1.23;;
25249;SDS011;13201;51.148;13.738;2023-11-21T02:54:58;2.90;;;1.38;;
25249;SDS011;13201;51.148;13.738;2023-11-21T02:57:24;5.78;;;1.52;;
25249;SDS011;13201;51.148;13.738;2023-11-21T02:59:50;6.00;;;1.33;;
25249;SDS011;13201;51.148;13.738;2023-11-21T03:02:15;7.05;;;1.40;;
25249;SDS011;13201;51.148;13.738;2023-11-21T03:04:41;2.70;;;1.38;;
25249;SDS011;13201;51.148;13.738;2023-11-21T03:07:08;3.23;;;1.47;;
25249;SDS011;13201;51.148;13.738;2023-11-21T03:09:34;5.32;;;1.70;;
25249;SDS011;13201;51.148;13.738;2023-11-21T03:12:00;4.03;;;1.50;;
25249;SDS011;13201;51.148;13.738;2023-11-21T03:14:26;3.27;;;1.60;;
25249;SDS011;13201;51.148;13.738;2023-11-21T03:16:52;5.20;;;1.48;;
25249;SDS011;13201;51.148;13.738;2023-11-21T03:19:18;5.53;;;1.50;;
25249;SDS011;13201;51.148;13.738;2023-11-21T03:21:44;4.05;;;1.42;;
25249;SDS011;13201;51.148;13.738;2023-11-21T03:24:09;2.80;;;1.30;;
25249;SDS011;13201;51.148;13.738;2023-11-21T03:26:35;3.88;;;1.40;;
25249;SDS011;13201;51.148;13.738;2023-11-21T03:29:02;5.75;;;1.50;;
25249;SDS011;13201;51.148;13.738;2023-11-21T03:31:28;2.95;;;1.40;;
25249;SDS011;13201;51.148;13.738;2023-11-21T03:33:53;6.82;;;1.50;;
25249;SDS011;13201;51.148;13.738;2023-11-21T03:36:19;3.83;;;1.70;;
25249;SDS011;13201;51.148;13.738;2023-11-21T03:38:45;6.25;;;1.50;;
25249;SDS011;13201;51.148;13.738;2023-11-21T03:41:11;5.05;;;1.40;;
25249;SDS011;13201;51.148;13.738;2023-11-21T03:43:37;5.88;;;1.42;;
25249;SDS011;13201;51.148;13.738;2023-11-21T03:46:03;6.00;;;1.70;;
25249;SDS011;13201;51.148;13.738;2023-11-21T03:48:29;4.82;;;1.75;;
25249;SDS011;13201;51.148;13.738;2023-11-21T03:50:55;4.20;;;1.60;;
25249;SDS011;13201;51.148;13.738;2023-11-21T03:53:20;6.07;;;1.58;;
25249;SDS011;13201;51.148;13.738;2023-11-21T03:55:46;6.40;;;1.58;;
25249;SDS011;13201;51.148;13.738;2023-11-21T03:58:12;5.80;;;1.70;;
25249;SDS011;13201;51.148;13.738;2023-11-21T04:00:37;4.25;;;1.50;;
25249;SDS011;13201;51.148;13.738;2023-11-21T04:03:03;4.23;;;1.80;;
25249;SDS011;13201;51.148;13.738;2023-11-21T04:05:30;5.50;;;1.25;;
25249;SDS011;13201;51.148;13.738;2023-11-21T04:07:56;4.27;;;1.53;;
25249;SDS011;13201;51.148;13.738;2023-11-21T04:10:22;3.65;;;1.60;;
25249;SDS011;13201;51.148;13.738;2023-11-21T04:12:47;7.47;;;1.80;;
25249;SDS011;13201;51.148;13.738;2023-11-21T04:15:13;4.60;;;1.60;;
25249;SDS011;13201;51.148;13.738;2023-11-21T04:17:39;3.20;;;1.65;;
25249;SDS011;13201;51.148;13.738;2023-11-21T04:20:05;7.80;;;1.77;;
25249;SDS011;13201;51.148;13.738;2023-11-21T04:22:36;7.97;;;2.05;;
25249;SDS011;13201;51.148;13.738;2023-11-21T04:25:05;4.65;;;1.77;;
25249;SDS011;13201;51.148;13.738;2023-11-21T04:27:36;3.45;;;1.73;;
25249;SDS011;13201;51.148;13.738;2023-11-21T04:32:29;2.47;;;1.33;;
25249;SDS011;13201;51.148;13.738;2023-11-21T04:34:54;6.03;;;2.10;;
25249;SDS011;13201;51.148;13.738;2023-11-21T04:37:20;8.30;;;1.90;;
25249;SDS011;13201;51.148;13.738;2023-11-21T04:39:46;9.63;;;2.23;;
25249;SDS011;13201;51.148;13.738;2023-11-21T04:42:12;7.85;;;1.90;;
25249;SDS011;13201;51.148;13.738;2023-11-21T04:44:37;3.40;;;1.80;;
25249;SDS011;13201;51.148;13.738;2023-11-21T04:47:06;11.85;;;2.05;;
25249;SDS011;13201;51.148;13.738;2023-11-21T04:49:32;8.88;;;2.10;;
25249;SDS011;13201;51.148;13.738;2023-11-21T04:51:58;5.80;;;1.50;;
25249;SDS011;13201;51.148;13.738;2023-11-21T04:54:24;5.80;;;2.08;;
25249;SDS011;13201;51.148;13.738;2023-11-21T04:56:50;4.93;;;1.98;;
25249;SDS011;13201;51.148;13.738;2023-11-21T04:59:16;5.00;;;2.17;;
25249;SDS011;13201;51.148;13.738;2023-11-21T05:01:41;8.25;;;2.42;;
25249;SDS011;13201;51.148;13.738;2023-11-21T05:04:07;5.00;;;1.88;;
25249;SDS011;13201;51.148;13.738;2023-11-21T05:06:33;4.65;;;1.77;;
25249;SDS011;13201;51.148;13.738;2023-11-21T05:08:59;5.95;;;2.33;;
25249;SDS011;13201;51.148;13.738;2023-11-21T05:11:25;5.88;;;2.40;;
25249;SDS011;13201;51.148;13.738;2023-11-21T05:13:52;6.30;;;2.22;;
25249;SDS011;13201;51.148;13.738;2023-11-21T05:16:18;8.35;;;2.72;;
25249;SDS011;13201;51.148;13.738;2023-11-21T05:21:10;4.83;;;2.20;;
25249;SDS011;13201;51.148;13.738;2023-11-21T05:23:36;6.45;;;2.47;;
25249;SDS011;13201;51.148;13.738;2023-11-21T05:26:02;9.55;;;2.63;;
25249;SDS011;13201;51.148;13.738;2023-11-21T05:28:28;8.88;;;2.60;;
25249;SDS011;13201;51.148;13.738;2023-11-21T05:30:54;8.05;;;2.58;;
25249;SDS011;13201;51.148;13.738;2023-11-21T05:33:20;7.35;;;2.55;;
25249;SDS011;13201;51.148;13.738;2023-11-21T05:35:46;7.72;;;2.42;;
25249;SDS011;13201;51.148;13.738;2023-11-21T05:38:13;7.78;;;2.60;;
25249;SDS011;13201;51.148;13.738;2023-11-21T05:40:39;6.28;;;2.40;;
25249;SDS011;13201;51.148;13.738;2023-11-21T05:43:04;7.55;;;2.53;;
25249;SDS011;13201;51.148;13.738;2023-11-21T05:45:30;4.00;;;1.95;;
25249;SDS011;13201;51.148;13.738;2023-11-21T05:47:57;9.77;;;2.65;;
25249;SDS011;13201;51.148;13.738;2023-11-21T05:50:23;9.27;;;2.75;;
25249;SDS011;13201;51.148;13.738;2023-11-21T05:52:49;9.13;;;2.67;;
25249;SDS011;13201;51.148;13.738;2023-11-21T05:55:14;6.50;;;2.38;;
25249;SDS011;13201;51.148;13.738;2023-11-21T05:57:41;6.90;;;2.40;;
25249;SDS011;13201;51.148;13.738;2023-11-21T06:00:09;6.75;;;2.58;;
25249;SDS011;13201;51.148;13.738;2023-11-21T06:02:39;5.68;;;2.50;;
25249;SDS011;13201;51.148;13.738;2023-11-21T06:05:08;8.43;;;2.95;;
25249;SDS011;13201;51.148;13.738;2023-11-21T06:07:35;8.88;;;2.92;;
25249;SDS011;13201;51.148;13.738;2023-11-21T06:10:02;8.32;;;2.70;;
25249;SDS011;13201;51.148;13.738;2023-11-21T06:12:32;5.95;;;2.53;;
25249;SDS011;13201;51.148;13.738;2023-11-21T06:15:01;7.18;;;2.72;;
25249;SDS011;13201;51.148;13.738;2023-11-21T06:17:30;6.32;;;3.28;;
25249;SDS011;13201;51.148;13.738;2023-11-21T06:19:56;6.85;;;2.60;;
25249;SDS011;13201;51.148;13.738;2023-11-21T06:22:22;8.27;;;3.00;;
25249;SDS011;13201;51.148;13.738;2023-11-21T06:24:47;11.52;;;3.00;;
25249;SDS011;13201;51.148;13.738;2023-11-21T06:27:13;6.90;;;2.70;;
25249;SDS011;13201;51.148;13.738;2023-11-21T06:29:39;11.68;;;2.95;;
25249;SDS011;13201;51.148;13.738;2023-11-21T06:32:04;10.85;;;3.03;;
25249;SDS011;13201;51.148;13.738;2023-11-21T06:34:30;8.27;;;2.83;;
25249;SDS011;13201;51.148;13.738;2023-11-21T06:36:56;6.47;;;2.97;;
25249;SDS011;13201;51.148;13.738;2023-11-21T06:39:22;8.68;;;2.78;;
25249;SDS011;13201;51.148;13.738;2023-11-21T06:41:50;11.15;;;3.28;;
25249;SDS011;13201;51.148;13.738;2023-11-21T06:44:16;10.35;;;3.30;;
25249;SDS011;13201;51.148;13.738;2023-11-21T06:46:42;6.35;;;3.17;;
25249;SDS011;13201;51.148;13.738;2023-11-21T06:49:08;12.80;;;3.55;;
25249;SDS011;13201;51.148;13.738;2023-11-21T06:51:33;7.85;;;3.30;;
25249;SDS011;13201;51.148;13.738;2023-11-21T06:53:59;9.73;;;3.03;;
25249;SDS011;13201;51.148;13.738;2023-11-21T06:56:25;13.82;;;3.75;;
25249;SDS011;13201;51.148;13.738;2023-11-21T06:58:51;7.43;;;3.10;;
25249;SDS011;13201;51.148;13.738;2023-11-21T07:01:19;9.23;;;3.45;;
25249;SDS011;13201;51.148;13.738;2023-11-21T07:03:45;8.60;;;3.10;;
25249;SDS011;13201;51.148;13.738;2023-11-21T07:06:11;9.95;;;3.63;;
25249;SDS011;13201;51.148;13.738;2023-11-21T07:08:37;11.38;;;3.60;;
25249;SDS011;13201;51.148;13.738;2023-11-21T07:11:03;9.05;;;3.40;;
25249;SDS011;13201;51.148;13.738;2023-11-21T07:13:29;12.10;;;3.53;;
25249;SDS011;13201;51.148;13.738;2023-11-21T07:15:55;9.52;;;3.92;;
25249;SDS011;13201;51.148;13.738;2023-11-21T07:20:48;11.20;;;3.63;;
25249;SDS011;13201;51.148;13.738;2023-11-21T07:23:13;11.20;;;3.88;;
25249;SDS011;13201;51.148;13.738;2023-11-21T07:25:40;16.15;;;4.13;;
25249;SDS011;13201;51.148;13.738;2023-11-21T07:28:08;11.30;;;3.92;;
25249;SDS011;13201;51.148;13.738;2023-11-21T07:30:33;10.75;;;3.85;;
25249;SDS011;13201;51.148;13.738;2023-11-21T07:32:59;14.18;;;4.32;;
25249;SDS011;13201;51.148;13.738;2023-11-21T07:35:25;17.87;;;4.30;;
25249;SDS011;13201;51.148;13.738;2023-11-21T07:37:51;5.03;;;3.40;;
25249;SDS011;13201;51.148;13.738;2023-11-21T07:40:17;10.57;;;4.07;;
25249;SDS011;13201;51.148;13.738;2023-11-21T07:42:43;13.18;;;4.15;;
25249;SDS011;13201;51.148;13.738;2023-11-21T07:45:08;13.27;;;4.60;;
25249;SDS011;13201;51.148;13.738;2023-11-21T07:47:34;9.57;;;4.10;;
25249;SDS011;13201;51.148;13.738;2023-11-21T07:50:03;10.77;;;4.18;;
25249;SDS011;13201;51.148;13.738;2023-11-21T07:52:29;8.93;;;4.22;;
25249;SDS011;13201;51.148;13.738;2023-11-21T07:54:55;18.10;;;4.72;;
25249;SDS011;13201;51.148;13.738;2023-11-21T07:57:21;12.13;;;4.40;;
25249;SDS011;13201;51.148;13.738;2023-11-21T07:59:47;10.00;;;4.88;;
25249;SDS011;13201;51.148;13.738;2023-11-21T08:02:12;14.60;;;4.78;;
25249;SDS011;13201;51.148;13.738;2023-11-21T08:04:38;13.85;;;4.88;;
25249;SDS011;13201;51.148;13.738;2023-11-21T08:07:04;14.95;;;4.80;;
25249;SDS011;13201;51.148;13.738;2023-11-21T08:09:29;12.30;;;5.07;;
25249;SDS011;13201;51.148;13.738;2023-11-21T08:11:55;14.32;;;4.97;;
25249;SDS011;13201;51.148;13.738;2023-11-21T08:14:21;14.90;;;4.77;;
25249;SDS011;13201;51.148;13.738;2023-11-21T08:16:50;15.85;;;5.45;;
25249;SDS011;13201;51.148;13.738;2023-11-21T08:19:16;15.95;;;4.85;;
25249;SDS011;13201;51.148;13.738;2023-11-21T08:21:43;14.30;;;5.22;;
25249;SDS011;13201;51.148;13.738;2023-11-21T08:24:09;11.75;;;5.30;;
25249;SDS011;13201;51.148;13.738;2023-11-21T08:26:36;17.33;;;5.30;;
25249;SDS011;13201;51.148;13.738;2023-11-21T08:29:02;10.57;;;5.10;;
25249;SDS011;13201;51.148;13.738;2023-11-21T08:31:28;13.13;;;5.22;;
25249;SDS011;13201;51.148;13.738;2023-11-21T08:33:54;11.93;;;5.22;;
25249;SDS011;13201;51.148;13.738;2023-11-21T08:36:23;14.23;;;5.50;;
25249;SDS011;13201;51.148;13.738;2023-11-21T08:38:49;8.30;;;4.70;;
25249;SDS011;13201;51.148;13.738;2023-11-21T08:41:17;9.25;;;4.80;;
25249;SDS011;13201;51.148;13.738;2023-11-21T08:43:47;9.80;;;4.95;;
25249;SDS011;13201;51.148;13.738;2023-11-21T08:48:38;8.27;;;4.07;;
25249;SDS011;13201;51.148;13.738;2023-11-21T08:51:06;9.70;;;4.40;;
25249;SDS011;13201;51.148;13.738;2023-11-21T08:53:32;10.18;;;4.85;;
25249;SDS011;13201;51.148;13.738;2023-11-21T08:55:58;8.53;;;4.47;;
25249;SDS011;13201;51.148;13.738;2023-11-21T08:58:24;7.65;;;4.13;;
25249;SDS011;13201;51.148;13.738;2023-11-21T09:00:50;7.63;;;4.13;;
25249;SDS011;13201;51.148;13.738;2023-11-21T09:03:16;7.63;;;4.13;;
25249;SDS011;13201;51.148;13.738;2023-11-21T09:05:42;8.45;;;4.07;;
25249;SDS011;13201;51.148;13.738;2023-11-21T09:08:07;7.20;;;3.92;;
25249;SDS011;13201;51.148;13.738;2023-11-21T09:10:33;6.55;;;4.38;;
25249;SDS011;13201;51.148;13.738;2023-11-21T09:13:02;6.85;;;4.35;;
25249;SDS011;13201;51.148;13.738;2023-11-21T09:15:28;5.38;;;4.30;;
25249;SDS011;13201;51.148;13.738;2023-11-21T09:17:54;6.00;;;3.53;;
25249;SDS011;13201;51.148;13.738;2023-11-21T09:20:19;11.27;;;8.05;;
25249;SDS011;13201;51.148;13.738;2023-11-21T09:22:47;3.13;;;2.15;;
25249;SDS011;13201;51.148;13.738;2023-11-21T09:25:14;4.68;;;2.17;;
25249;SDS011;13201;51.148;13.738;2023-11-21T09:27:40;3.47;;;1.58;;
25249;SDS011;13201;51.148;13.738;2023-11-21T09:30:06;2.47;;;1.90;;
25249;SDS011;13201;51.148;13.738;2023-11-21T09:32:36;5.70;;;2.75;;
25249;SDS011;13201;51.148;13.738;2023-11-21T09:35:06;4.43;;;2.72;;
25249;SDS011;13201;51.148;13.738;2023-11-21T09:37:34;30.27;;;11.88;;
25249;SDS011;13201;51.148;13.738;2023-11-21T09:40:03;19.15;;;8.75;;
25249;SDS011;13201;51.148;13.738;2023-11-21T09:42:31;10.18;;;6.60;;
25249;SDS011;13201;51.148;13.738;2023-11-21T09:45:35;9.20;;;5.07;;
25249;SDS011;13201;51.148;13.738;2023-11-21T09:47:56;10.90;;;4.53;;
25249;SDS011;13201;51.148;13.738;2023-11-21T09:50:22;5.82;;;4.65;;
25249;SDS011;13201;51.148;13.738;2023-11-21T09:53:07;9.48;;;4.90;;
25249;SDS011;13201;51.148;13.738;2023-11-21T09:55:39;7.78;;;5.28;;
25249;SDS011;13201;51.148;13.738;2023-11-21T09:58:08;12.68;;;5.20;;
25249;SDS011;13201;51.148;13.738;2023-11-21T10:00:37;9.48;;;6.05;;
25249;SDS011;13201;51.148;13.738;2023-11-21T10:03:09;13.35;;;6.80;;
25249;SDS011;13201;51.148;13.738;2023-11-21T10:05:35;11.88;;;5.43;;
25249;SDS011;13201;51.148;13.738;2023-11-21T10:08:02;16.10;;;9.20;;
25249;SDS011;13201;51.148;13.738;2023-11-21T10:10:32;8.75;;;6.28;;
25249;SDS011;13201;51.148;13.738;2023-11-21T10:12:57;8.70;;;6.20;;
25249;SDS011;13201;51.148;13.738;2023-11-21T10:15:28;9.00;;;5.68;;
25249;SDS011;13201;51.148;13.738;2023-11-21T10:17:55;8.95;;;5.65;;
25249;SDS011;13201;51.148;13.738;2023-11-21T10:20:24;9.02;;;6.28;;
25249;SDS011;13201;51.148;13.738;2023-11-21T10:22:51;11.55;;;6.13;;
25249;SDS011;13201;51.148;13.738;2023-11-21T10:25:17;9.57;;;6.10;;
25249;SDS011;13201;51.148;13.738;2023-11-21T10:27:47;17.42;;;9.90;;
25249;SDS011;13201;51.148;13.738;2023-11-21T10:30:15;21.40;;;11.57;;
25249;SDS011;13201;51.148;13.738;2023-11-21T10:32:44;16.13;;;8.40;;
25249;SDS011;13201;51.148;13.738;2023-11-21T10:35:09;13.30;;;6.97;;
25249;SDS011;13201;51.148;13.738;2023-11-21T10:37:41;10.35;;;5.38;;
25249;SDS011;13201;51.148;13.738;2023-11-21T10:40:11;8.82;;;6.07;;
25249;SDS011;13201;51.148;13.738;2023-11-21T10:42:40;8.77;;;4.53;;
25249;SDS011;13201;51.148;13.738;2023-11-21T10:45:09;9.00;;;5.47;;
25249;SDS011;13201;51.148;13.738;2023-11-21T10:47:42;15.52;;;8.23;;
25249;SDS011;13201;51.148;13.738;2023-11-21T10:50:09;11.90;;;7.05;;
25249;SDS011;13201;51.148;13.738;2023-11-21T10:52:42;11.88;;;7.00;;
25249;SDS011;13201;51.148;13.738;2023-11-21T10:55:21;10.50;;;5.72;;
25249;SDS011;13201;51.148;13.738;2023-11-21T10:57:49;10.70;;;5.68;;
25249;SDS011;13201;51.148;13.738;2023-11-21T11:00:17;9.55;;;5.70;;
25249;SDS011;13201;51.148;13.738;2023-11-21T11:02:51;8.57;;;5.55;;
25249;SDS011;13201;51.148;13.738;2023-11-21T11:05:19;13.20;;;7.18;;
25249;SDS011;13201;51.148;13.738;2023-11-21T11:07:47;7.32;;;4.63;;
25249;SDS011;13201;51.148;13.738;2023-11-21T11:10:20;7.63;;;4.65;;
25249;SDS011;13201;51.148;13.738;2023-11-21T11:12:48;9.77;;;4.38;;
25249;SDS011;13201;51.148;13.738;2023-11-21T11:15:15;9.97;;;4.77;;
25249;SDS011;13201;51.148;13.738;2023-11-21T11:17:42;7.32;;;4.30;;
25249;SDS011;13201;51.148;13.738;2023-11-21T11:20:10;8.80;;;4.70;;
25249;SDS011;13201;51.148;13.738;2023-11-21T11:22:59;8.13;;;4.82;;
25249;SDS011;13201;51.148;13.738;2023-11-21T11:33:59;8.38;;;5.57;;
25249;SDS011;13201;51.148;13.738;2023-11-21T11:36:31;12.80;;;7.22;;
25249;SDS011;13201;51.148;13.738;2023-11-21T11:39:02;10.85;;;6.78;;
25249;SDS011;13201;51.148;13.738;2023-11-21T11:41:30;10.48;;;6.82;;
25249;SDS011;13201;51.148;13.738;2023-11-21T11:44:02;14.50;;;8.52;;
25249;SDS011;13201;51.148;13.738;2023-11-21T11:46:47;19.15;;;11.38;;
25249;SDS011;13201;51.148;13.738;2023-11-21T11:49:28;11.07;;;6.18;;
25249;SDS011;13201;51.148;13.738;2023-11-21T11:54:58;8.27;;;6.38;;
25249;SDS011;13201;51.148;13.738;2023-11-21T11:57:25;9.32;;;5.20;;
25249;SDS011;13201;51.148;13.738;2023-11-21T12:00:07;11.80;;;6.75;;
25249;SDS011;13201;51.148;13.738;2023-11-21T12:02:45;11.43;;;6.50;;
25249;SDS011;13201;51.148;13.738;2023-11-21T12:05:17;11.35;;;8.23;;
25249;SDS011;13201;51.148;13.738;2023-11-21T12:08:05;10.90;;;5.53;;
25249;SDS011;13201;51.148;13.738;2023-11-21T12:10:31;8.43;;;5.15;;
25249;SDS011;13201;51.148;13.738;2023-11-21T12:13:02;8.55;;;5.60;;
25249;SDS011;13201;51.148;13.738;2023-11-21T12:15:32;11.45;;;6.30;;
25249;SDS011;13201;51.148;13.738;2023-11-21T12:18:02;8.70;;;5.63;;
25249;SDS011;13201;51.148;13.738;2023-11-21T12:22:58;11.93;;;7.57;;
25249;SDS011;13201;51.148;13.738;2023-11-21T12:25:26;11.93;;;7.53;;
25249;SDS011;13201;51.148;13.738;2023-11-21T12:27:57;12.15;;;8.20;;
25249;SDS011;13201;51.148;13.738;2023-11-21T12:30:25;11.73;;;7.47;;
25249;SDS011;13201;51.148;13.738;2023-11-21T12:32:56;11.60;;;7.03;;
25249;SDS011;13201;51.148;13.738;2023-11-21T12:35:30;11.77;;;7.70;;
25249;SDS011;13201;51.148;13.738;2023-11-21T12:37:59;13.90;;;7.80;;
25249;SDS011;13201;51.148;13.738;2023-11-21T12:40:27;10.88;;;6.82;;
25249;SDS011;13201;51.148;13.738;2023-11-21T12:42:54;10.60;;;7.10;;
25249;SDS011;13201;51.148;13.738;2023-11-21T12:45:22;11.25;;;7.78;;
25249;SDS011;13201;51.148;13.738;2023-11-21T12:47:51;14.95;;;9.40;;
25249;SDS011;13201;51.148;13.738;2023-11-21T12:50:20;24.10;;;14.57;;
25249;SDS011;13201;51.148;13.738;2023-11-21T12:52:48;17.48;;;11.30;;
25249;SDS011;13201;51.148;13.738;2023-11-21T12:55:20;18.08;;;11.30;;
25249;SDS011;13201;51.148;13.738;2023-11-21T12:57:53;13.15;;;6.47;;
25249;SDS011;13201;51.148;13.738;2023-11-21T13:00:20;10.10;;;6.05;;
25249;SDS011;13201;51.148;13.738;2023-11-21T13:02:54;12.45;;;7.00;;
25249;SDS011;13201;51.148;13.738;2023-11-21T13:07:51;15.55;;;7.85;;
25249;SDS011;13201;51.148;13.738;2023-11-21T13:10:19;12.32;;;7.30;;
25249;SDS011;13201;51.148;13.738;2023-11-21T13:12:51;13.38;;;7.20;;
25249;SDS011;13201;51.148;13.738;2023-11-21T13:15:17;14.40;;;7.78;;
25249;SDS011;13201;51.148;13.738;2023-11-21T13:17:43;15.43;;;7.60;;
25249;SDS011;13201;51.148;13.738;2023-11-21T13:20:12;13.65;;;7.60;;
25249;SDS011;13201;51.148;13.738;2023-11-21T13:22:48;15.48;;;7.65;;
25249;SDS011;13201;51.148;13.738;2023-11-21T13:25:22;13.85;;;7.82;;
25249;SDS011;13201;51.148;13.738;2023-11-21T13:27:48;15.38;;;7.93;;
25249;SDS011;13201;51.148;13.738;2023-11-21T13:30:15;13.57;;;7.50;;
25249;SDS011;13201;51.148;13.738;2023-11-21T13:32:42;12.70;;;7.57;;
25249;SDS011;13201;51.148;13.738;2023-11-21T13:35:09;13.82;;;7.63;;
25249;SDS011;13201;51.148;13.738;2023-11-21T13:37:44;12.85;;;7.05;;
25249;SDS011;13201;51.148;13.738;2023-11-21T13:40:10;15.17;;;7.37;;
25249;SDS011;13201;51.148;13.738;2023-11-21T13:42:40;14.98;;;6.95;;
25249;SDS011;13201;51.148;13.738;2023-11-21T13:45:06;12.57;;;6.25;;
25249;SDS011;13201;51.148;13.738;2023-11-21T13:47:32;14.00;;;7.40;;
25249;SDS011;13201;51.148;13.738;2023-11-21T13:49:59;12.25;;;6.30;;
25249;SDS011;13201;51.148;13.738;2023-11-21T13:52:26;14.25;;;6.20;;
25249;SDS011;13201;51.148;13.738;2023-11-21T13:57:19;15.57;;;7.30;;
25249;SDS011;13201;51.148;13.738;2023-11-21T13:59:45;11.95;;;6.88;;
25249;SDS011;13201;51.148;13.738;2023-11-21T14:02:11;12.60;;;6.78;;
25249;SDS011;13201;51.148;13.738;2023-11-21T14:04:42;13.32;;;6.90;;
25249;SDS011;13201;51.148;13.738;2023-11-21T14:07:14;13.13;;;7.22;;
25249;SDS011;13201;51.148;13.738;2023-11-21T14:09:59;16.58;;;7.47;;
25249;SDS011;13201;51.148;13.738;2023-11-21T14:12:25;16.55;;;8.32;;
25249;SDS011;13201;51.148;13.738;2023-11-21T14:14:51;11.23;;;6.53;;
25249;SDS011;13201;51.148;13.738;2023-11-21T14:17:16;12.75;;;6.82;;
25249;SDS011;13201;51.148;13.738;2023-11-21T14:19:42;12.52;;;7.05;;
25249;SDS011;13201;51.148;13.738;2023-11-21T14:22:09;12.90;;;6.60;;
25249;SDS011;13201;51.148;13.738;2023-11-21T14:24:35;12.93;;;6.50;;
25249;SDS011;13201;51.148;13.738;2023-11-21T14:27:01;11.70;;;6.43;;
25249;SDS011;13201;51.148;13.738;2023-11-21T14:29:28;13.70;;;9.10;;
25249;SDS011;13201;51.148;13.738;2023-11-21T14:31:55;10.80;;;6.00;;
25249;SDS011;13201;51.148;13.738;2023-11-21T14:34:23;8.93;;;5.05;;
25249;SDS011;13201;51.148;13.738;2023-11-21T14:36:49;9.70;;;5.22;;
25249;SDS011;13201;51.148;13.738;2023-11-21T14:39:15;12.43;;;5.57;;
25249;SDS011;13201;51.148;13.738;2023-11-21T14:41:53;8.27;;;4.35;;
25249;SDS011;13201;51.148;13.738;2023-11-21T14:44:21;6.88;;;4.95;;
25249;SDS011;13201;51.148;13.738;2023-11-21T14:46:53;5.40;;;3.65;;
25249;SDS011;13201;51.148;13.738;2023-11-21T14:49:20;6.68;;;3.90;;
25249;SDS011;13201;51.148;13.738;2023-11-21T14:51:47;9.52;;;4.22;;
25249;SDS011;13201;51.148;13.738;2023-11-21T14:54:31;5.90;;;4.85;;
25249;SDS011;13201;51.148;13.738;2023-11-21T14:57:09;7.28;;;5.35;;
25249;SDS011;13201;51.148;13.738;2023-11-21T14:59:43;6.68;;;4.63;;
25249;SDS011;13201;51.148;13.738;2023-11-21T15:02:16;7.38;;;4.32;;
25249;SDS011;13201;51.148;13.738;2023-11-21T15:04:46;7.15;;;5.15;;
25249;SDS011;13201;51.148;13.738;2023-11-21T15:07:13;7.70;;;4.68;;
25249;SDS011;13201;51.148;13.738;2023-11-21T15:09:39;9.20;;;4.90;;
25249;SDS011;13201;51.148;13.738;2023-11-21T15:12:08;9.05;;;5.13;;
25249;SDS011;13201;51.148;13.738;2023-11-21T15:14:49;11.60;;;5.68;;
25249;SDS011;13201;51.148;13.738;2023-11-21T15:17:21;13.82;;;6.85;;
25249;SDS011;13201;51.148;13.738;2023-11-21T15:19:49;8.38;;;5.07;;
25249;SDS011;13201;51.148;13.738;2023-11-21T15:22:15;12.47;;;6.13;;
25249;SDS011;13201;51.148;13.738;2023-11-21T15:24:41;9.52;;;5.43;;